Arimo, Idaho
Current Conditions -  °F | °C
As of 3:53 PM on Tuesday 25 Nov 2014 (Local Time) from KPIH Reporting Station
Overcast Overcast  
Wind Chill:   Ceiling: 2600
Heat Index:   Visibility: 10mi
Dew Point:   Wind: 31mph
Humidity: 74%   Direction: 240°WSW
Pressure: 30.14"   Gusts: 45mph
Location:  42.56°N, 112.17°W
Report Text: KPIH 252253Z 24027G39KT 10SM BKN026 OVC031 09/04 A3014 RMK AO2 PK WND 24040/2217 SLP206 T00890044
Loading
Personal Weather Stations






























Interactive Weather Map New forecast layout! Learn more

10-Day Weather Forecast

Advertisements
Track Severe Weather on mobile